createdAt,value
2022-09-30T00:01:51.331Z,100159.09
2022-09-30T00:04:20.580Z,100157.22
2022-09-30T00:06:48.048Z,100147.66
2022-09-30T00:09:15.047Z,100152.75
2022-09-30T00:11:42.611Z,100145.75
2022-09-30T00:14:15.045Z,100145.66
2022-09-30T00:16:41.579Z,100148.16
2022-09-30T00:19:08.372Z,100142.03
2022-09-30T00:21:34.835Z,100146.31
2022-09-30T00:24:01.838Z,100152.28
2022-09-30T00:26:28.234Z,100144.44
2022-09-30T00:28:59.029Z,100153.84
2022-09-30T00:31:28.821Z,100154.69
2022-09-30T00:34:07.566Z,100152.84
2022-09-30T00:36:45.934Z,100162.31
2022-09-30T00:39:20.902Z,100164.03
2022-09-30T00:41:51.668Z,100157.09
2022-09-30T00:44:43.285Z,100161.31
2022-09-30T00:47:22.052Z,100162.09
2022-09-30T00:49:48.736Z,100159.31
2022-09-30T00:52:15.174Z,100165.31
2022-09-30T00:54:41.787Z,100166.09
2022-09-30T00:57:08.960Z,100172.13
2022-09-30T00:59:39.770Z,100157.31
2022-09-30T01:02:06.565Z,100165.91
2022-09-30T01:04:35.019Z,100169.34
2022-09-30T01:07:06.617Z,100165.88
2022-09-30T01:09:34.224Z,100164.97
2022-09-30T01:12:07.375Z,100170.97
2022-09-30T01:14:34.842Z,100171.78
2022-09-30T01:17:10.643Z,100183.78
2022-09-30T01:20:17.002Z,100180.28
2022-09-30T01:22:52.402Z,100175.94
2022-09-30T01:25:39.082Z,100175.00
2022-09-30T01:28:20.706Z,100181.78
2022-09-30T01:31:19.441Z,100181.72
2022-09-30T01:34:11.298Z,100168.63
2022-09-30T01:37:05.512Z,100172.91
2022-09-30T01:39:46.303Z,100176.22
2022-09-30T01:42:49.894Z,100179.63
2022-09-30T01:45:20.662Z,100182.19
2022-09-30T01:47:58.040Z,100175.25
2022-09-30T01:50:50.717Z,100181.16
2022-09-30T01:53:45.072Z,100182.81
2022-09-30T01:56:33.901Z,100188.75
2022-09-30T01:59:05.044Z,100179.19
2022-09-30T02:01:39.114Z,100180.84
2022-09-30T02:04:09.870Z,100173.03
2022-09-30T02:06:40.929Z,100178.16
2022-09-30T02:09:11.673Z,100186.66
2022-09-30T02:11:38.676Z,100184.84
2022-09-30T02:14:26.072Z,100190.00
2022-09-30T02:17:07.073Z,100189.97
2022-09-30T02:19:44.000Z,100192.50
2022-09-30T02:22:15.509Z,100183.81
2022-09-30T02:24:43.787Z,100188.09
2022-09-30T02:27:15.562Z,100192.25
2022-09-30T02:29:45.946Z,100190.50
2022-09-30T02:32:21.094Z,100186.97
2022-09-30T02:35:11.692Z,100179.13
2022-09-30T02:37:42.618Z,100185.13
2022-09-30T02:40:12.136Z,100186.75
2022-09-30T02:42:39.363Z,100189.16
2022-09-30T02:45:10.214Z,100195.97
2022-09-30T02:47:42.494Z,100191.56
2022-09-30T02:50:17.954Z,100189.81
2022-09-30T02:53:11.398Z,100192.28
2022-09-30T02:56:34.883Z,100202.50
2022-09-30T02:59:01.353Z,100212.03
2022-09-30T03:01:27.777Z,100205.84
2022-09-30T03:03:57.769Z,100205.78
2022-09-30T03:06:24.254Z,100204.75
2022-09-30T03:08:53.544Z,100207.25
2022-09-30T03:11:22.937Z,100205.44
2022-09-30T03:14:01.805Z,100207.88
2022-09-30T03:16:44.553Z,100214.75
2022-09-30T03:19:19.785Z,100219.03
2022-09-30T03:22:15.197Z,100218.09
2022-09-30T03:24:49.197Z,100221.56
2022-09-30T03:27:45.452Z,100212.06
2022-09-30T03:30:17.919Z,100223.28
2022-09-30T03:33:08.241Z,100225.78
2022-09-30T03:35:50.209Z,100227.50
2022-09-30T03:38:36.959Z,100227.44
2022-09-30T03:41:33.156Z,100230.78
2022-09-30T03:44:15.157Z,100234.19
2022-09-30T03:46:54.423Z,100240.19
2022-09-30T03:49:24.031Z,100243.59
2022-09-30T03:51:51.143Z,100239.09
2022-09-30T03:54:17.647Z,100244.16
2022-09-30T03:56:44.182Z,100250.94
2022-09-30T03:59:12.371Z,100254.34
2022-09-30T04:01:39.745Z,100259.47
2022-09-30T04:04:06.224Z,100268.03
2022-09-30T04:06:32.681Z,100263.59
2022-09-30T04:08:59.152Z,100267.78
2022-09-30T04:11:25.614Z,100277.16
2022-09-30T04:13:52.075Z,100283.16
2022-09-30T04:16:19.046Z,100290.91
2022-09-30T04:18:45.521Z,100299.47
2022-09-30T04:21:14.132Z,100301.22
2022-09-30T04:23:41.554Z,100301.22
2022-09-30T04:26:11.467Z,100301.09
2022-09-30T04:28:37.874Z,100308.78
2022-09-30T04:31:05.713Z,100308.66
2022-09-30T04:33:32.467Z,100314.56
2022-09-30T04:36:00.248Z,100318.78
2022-09-30T04:38:27.555Z,100317.81
2022-09-30T04:40:55.692Z,100319.41
2022-09-30T04:43:23.465Z,100323.63
2022-09-30T04:45:51.246Z,100325.22
2022-09-30T04:48:17.731Z,100315.66
2022-09-30T04:50:44.556Z,100321.66
2022-09-30T04:53:13.205Z,100319.81
2022-09-30T04:55:39.619Z,100324.91
2022-09-30T04:58:06.038Z,100326.63
2022-09-30T05:00:32.502Z,100324.84
2022-09-30T05:02:58.989Z,100329.13
2022-09-30T05:05:25.461Z,100335.16
2022-09-30T05:07:51.935Z,100334.28
2022-09-30T05:10:18.346Z,100336.88
2022-09-30T05:12:45.888Z,100332.53
2022-09-30T05:15:12.296Z,100324.72
2022-09-30T05:17:38.722Z,100323.84
2022-09-30T05:20:10.670Z,100324.63
2022-09-30T05:22:38.239Z,100337.69
2022-09-30T05:25:05.106Z,100339.44
2022-09-30T05:27:32.578Z,100339.38
2022-09-30T05:29:58.981Z,100345.44
2022-09-30T05:32:25.528Z,100342.84
2022-09-30T05:34:52.216Z,100355.81
2022-09-30T05:37:18.913Z,100349.00
2022-09-30T05:39:45.343Z,100355.13
2022-09-30T05:42:14.064Z,100356.94
2022-09-30T05:44:40.654Z,100360.47
2022-09-30T05:47:07.137Z,100364.03
2022-09-30T05:49:34.946Z,100367.56
2022-09-30T05:52:01.598Z,100359.13
2022-09-30T05:54:27.991Z,100363.59
2022-09-30T05:56:54.407Z,100366.38
2022-09-30T05:59:20.877Z,100367.47
2022-09-30T06:01:47.382Z,100370.09
2022-09-30T06:04:13.855Z,100371.91
2022-09-30T06:06:40.295Z,100378.06
2022-09-30T06:09:06.845Z,100374.69
2022-09-30T06:11:34.910Z,100382.50
2022-09-30T06:14:01.311Z,100374.75
2022-09-30T06:16:27.845Z,100386.91
2022-09-30T06:18:55.356Z,100382.69
2022-09-30T06:21:22.755Z,100395.72
2022-09-30T06:23:49.154Z,100403.59
2022-09-30T06:26:28.962Z,100410.59
2022-09-30T06:28:55.709Z,100410.72
2022-09-30T06:31:22.235Z,100416.03
2022-09-30T06:33:52.475Z,100420.53
2022-09-30T06:36:18.881Z,100419.94
2022-09-30T06:38:45.514Z,100419.25
2022-09-30T06:41:11.944Z,100418.53
2022-09-30T06:43:44.865Z,100418.00
2022-09-30T06:46:20.510Z,100414.78
2022-09-30T06:49:07.938Z,100424.63
2022-09-30T06:51:37.457Z,100418.94
2022-09-30T06:54:03.837Z,100416.66
2022-09-30T06:56:31.980Z,100417.91
2022-09-30T06:58:58.413Z,100415.69
2022-09-30T07:01:24.962Z,100414.22
2022-09-30T07:03:57.801Z,100422.28
2022-09-30T07:06:26.311Z,100417.41
2022-09-30T07:08:54.082Z,100421.19
2022-09-30T07:11:20.829Z,100430.91
2022-09-30T07:13:49.133Z,100438.97
2022-09-30T07:16:21.205Z,100436.66
2022-09-30T07:18:47.762Z,100442.19
2022-09-30T07:21:16.107Z,100436.59
2022-09-30T07:23:47.755Z,100438.72
2022-09-30T07:26:15.916Z,100435.53
2022-09-30T07:28:43.663Z,100435.94
2022-09-30T07:31:32.917Z,100432.75
2022-09-30T07:33:59.140Z,100434.81
2022-09-30T07:36:32.650Z,100437.63
2022-09-30T07:39:05.213Z,100437.00
2022-09-30T07:41:31.804Z,100444.25
2022-09-30T07:44:01.448Z,100444.59
2022-09-30T07:46:30.591Z,100443.13
2022-09-30T07:49:04.043Z,100443.38
2022-09-30T07:51:33.600Z,100440.19
2022-09-30T07:54:13.603Z,100440.47
2022-09-30T07:57:08.294Z,100439.00
2022-09-30T07:59:29.182Z,100449.59
2022-09-30T08:01:55.715Z,100447.22
2022-09-30T08:04:23.892Z,100452.78
2022-09-30T08:06:56.149Z,100456.50
2022-09-30T08:09:24.738Z,100459.34
2022-09-30T08:11:51.408Z,100469.09
2022-09-30T08:14:20.763Z,100464.16
2022-09-30T08:16:47.577Z,100466.00
2022-09-30T08:19:16.604Z,100461.84
2022-09-30T08:21:43.639Z,100464.75
2022-09-30T08:24:10.672Z,100468.41
2022-09-30T08:26:37.257Z,100463.38
2022-09-30T08:29:03.744Z,100470.56
2022-09-30T08:31:30.253Z,100470.66
2022-09-30T08:33:57.694Z,100470.81
2022-09-30T08:36:25.334Z,100478.00
2022-09-30T08:38:52.058Z,100480.81
2022-09-30T08:41:57.829Z,100480.22
2022-09-30T08:44:39.124Z,100478.59
2022-09-30T08:47:33.296Z,100478.84
2022-09-30T08:50:14.933Z,100475.47
2022-09-30T08:52:51.721Z,100477.41
2022-09-30T08:55:26.820Z,100487.94
2022-09-30T08:57:55.799Z,100482.94
2022-09-30T09:00:22.681Z,100484.84
2022-09-30T09:02:55.765Z,100485.00
2022-09-30T09:05:55.224Z,100486.03
2022-09-30T09:08:33.121Z,100487.19
2022-09-30T09:11:42.715Z,100487.34
2022-09-30T09:14:19.039Z,100483.09
2022-09-30T09:16:58.835Z,100487.56
2022-09-30T09:19:26.397Z,100487.69
2022-09-30T09:22:02.305Z,100490.34
2022-09-30T09:24:38.150Z,100496.56
2022-09-30T09:27:17.136Z,100497.63
2022-09-30T09:30:00.045Z,100498.56
2022-09-30T09:32:27.409Z,100495.22
2022-09-30T09:35:15.692Z,100492.75
2022-09-30T09:38:18.499Z,100495.53
2022-09-30T09:41:18.330Z,100487.81
2022-09-30T09:43:50.796Z,100476.66
2022-09-30T09:46:26.178Z,100480.22
2022-09-30T09:49:24.101Z,100476.94
2022-09-30T09:52:05.690Z,100477.84
2022-09-30T09:54:33.622Z,100474.50
2022-09-30T09:57:15.683Z,100472.00
2022-09-30T10:00:27.020Z,100473.91
2022-09-30T10:03:12.408Z,100463.56
2022-09-30T10:05:42.205Z,100461.03
2022-09-30T10:08:21.711Z,100462.91
2022-09-30T10:11:14.407Z,100458.69
2022-09-30T10:13:45.309Z,100463.06
2022-09-30T10:16:36.900Z,100461.38
2022-09-30T10:19:21.930Z,100455.41
2022-09-30T10:21:50.915Z,100463.28
2022-09-30T10:24:30.791Z,100456.44
2022-09-30T10:26:57.295Z,100462.66
2022-09-30T10:29:34.594Z,100461.00
2022-09-30T10:32:02.566Z,100462.84
2022-09-30T10:34:34.465Z,100457.69
2022-09-30T10:37:21.590Z,100454.25
2022-09-30T10:40:09.072Z,100453.38
2022-09-30T10:42:39.421Z,100455.28
2022-09-30T10:45:33.062Z,100447.47
2022-09-30T10:48:00.739Z,100451.00
2022-09-30T10:50:27.707Z,100453.69
2022-09-30T10:52:59.755Z,100446.84
2022-09-30T10:55:42.478Z,100452.09
2022-09-30T10:58:22.527Z,100447.81
2022-09-30T11:00:51.143Z,100454.00
2022-09-30T11:03:21.521Z,100447.97
2022-09-30T11:05:49.725Z,100447.13
2022-09-30T11:08:23.320Z,100449.72
2022-09-30T11:10:54.321Z,100448.94
2022-09-30T11:13:28.580Z,100456.72
2022-09-30T11:16:17.497Z,100457.72
2022-09-30T11:18:58.067Z,100454.34
2022-09-30T11:21:29.915Z,100447.41
2022-09-30T11:24:30.139Z,100452.69
2022-09-30T11:27:14.668Z,100458.03
2022-09-30T11:29:47.157Z,100463.38
2022-09-30T11:32:39.093Z,100464.31
2022-09-30T11:35:28.593Z,100456.59
2022-09-30T11:38:00.837Z,100452.31
2022-09-30T11:40:44.472Z,100447.97
2022-09-30T11:43:13.705Z,100449.00
2022-09-30T11:46:18.654Z,100438.59
2022-09-30T11:49:06.863Z,100442.19
2022-09-30T11:51:53.228Z,100446.59
2022-09-30T11:54:57.050Z,100444.94
2022-09-30T11:57:28.292Z,100446.75
2022-09-30T12:00:10.037Z,100440.69
2022-09-30T12:02:44.019Z,100438.19
2022-09-30T12:05:33.437Z,100437.34
2022-09-30T12:08:36.270Z,100445.22
2022-09-30T12:11:08.041Z,100446.94
2022-09-30T12:13:38.976Z,100437.38
2022-09-30T12:16:11.686Z,100450.56
2022-09-30T12:18:41.873Z,100447.13
2022-09-30T12:21:31.209Z,100445.47
2022-09-30T12:24:06.343Z,100444.69
2022-09-30T12:26:33.527Z,100432.53
2022-09-30T12:29:32.630Z,100441.28
2022-09-30T12:32:27.425Z,100446.53
2022-09-30T12:35:14.906Z,100441.31
2022-09-30T12:38:16.701Z,100453.53
2022-09-30T12:40:52.657Z,100444.81
2022-09-30T12:43:38.593Z,100457.06
2022-09-30T12:46:29.326Z,100454.47
2022-09-30T12:49:03.767Z,100448.41
2022-09-30T12:51:32.370Z,100447.63
2022-09-30T12:54:04.031Z,100442.41
2022-09-30T12:56:32.142Z,100441.47
2022-09-30T12:59:00.514Z,100437.97
2022-09-30T13:01:31.340Z,100437.06
2022-09-30T13:03:59.197Z,100438.84
2022-09-30T13:06:27.229Z,100431.00
2022-09-30T13:08:56.605Z,100434.53
2022-09-30T13:11:33.374Z,100431.00
2022-09-30T13:14:47.663Z,100427.53
2022-09-30T13:17:13.969Z,100427.59
2022-09-30T13:19:54.104Z,100422.34
2022-09-30T13:22:29.714Z,100428.50
2022-09-30T13:25:05.222Z,100425.91
2022-09-30T13:27:37.331Z,100433.81
2022-09-30T13:30:15.990Z,100425.97
2022-09-30T13:32:42.717Z,100421.63
2022-09-30T13:35:34.068Z,100424.22
2022-09-30T13:38:12.880Z,100428.59
2022-09-30T13:41:03.466Z,100424.22
2022-09-30T13:43:52.138Z,100424.19
2022-09-30T13:46:29.732Z,100421.56
2022-09-30T13:49:04.275Z,100422.44
2022-09-30T13:51:33.146Z,100420.69
2022-09-30T13:54:06.295Z,100413.72
2022-09-30T13:56:35.175Z,100418.13
2022-09-30T13:59:17.120Z,100421.66
2022-09-30T14:02:12.874Z,100421.72
2022-09-30T14:04:50.885Z,100418.28
2022-09-30T14:07:42.135Z,100410.44
2022-09-30T14:10:29.839Z,100415.75
2022-09-30T14:13:02.692Z,100412.25
2022-09-30T14:16:01.704Z,100407.91
2022-09-30T14:18:44.346Z,100400.91
2022-09-30T14:21:36.000Z,100403.56
2022-09-30T14:24:09.438Z,100408.00
2022-09-30T14:27:06.289Z,100411.50
2022-09-30T14:29:54.387Z,100402.78
2022-09-30T14:32:26.866Z,100407.13
2022-09-30T14:34:53.445Z,100412.44
2022-09-30T14:37:24.575Z,100410.69
2022-09-30T14:39:51.086Z,100412.44
2022-09-30T14:42:25.289Z,100405.47
2022-09-30T14:44:52.062Z,100405.44
2022-09-30T14:47:19.324Z,100394.97
2022-09-30T14:49:45.756Z,100406.31
2022-09-30T14:52:35.471Z,100412.44
2022-09-30T14:55:01.882Z,100412.44
2022-09-30T14:57:28.281Z,100414.13
2022-09-30T15:00:32.320Z,100405.38
2022-09-30T15:02:59.326Z,100404.50
2022-09-30T15:05:26.838Z,100402.75
2022-09-30T15:07:54.105Z,100406.25
2022-09-30T15:10:22.967Z,100408.88
2022-09-30T15:12:50.768Z,100406.25
2022-09-30T15:15:35.706Z,100402.75
2022-09-30T15:18:42.590Z,100410.59
2022-09-30T15:21:16.165Z,100405.28
2022-09-30T15:23:46.259Z,100407.91
2022-09-30T15:26:13.245Z,100400.91
2022-09-30T15:28:39.889Z,100404.41
2022-09-30T15:31:07.755Z,100402.66
2022-09-30T15:33:34.968Z,100407.00
2022-09-30T15:36:16.737Z,100404.41
2022-09-30T15:38:48.711Z,100407.00
2022-09-30T15:41:15.567Z,100408.69
2022-09-30T15:43:45.225Z,100403.44
2022-09-30T15:46:27.997Z,100413.91
2022-09-30T15:48:56.641Z,100406.91
2022-09-30T15:51:35.134Z,100404.25
2022-09-30T15:54:23.833Z,100407.72
2022-09-30T15:56:50.225Z,100411.19
2022-09-30T15:59:16.753Z,100413.81
2022-09-30T16:01:48.389Z,100409.44
2022-09-30T16:04:22.822Z,100422.53
2022-09-30T16:06:52.248Z,100422.47
2022-09-30T16:09:18.705Z,100414.59
2022-09-30T16:11:48.639Z,100416.34
2022-09-30T16:14:22.165Z,100425.91
2022-09-30T16:16:51.356Z,100425.88
2022-09-30T16:19:19.033Z,100421.47
2022-09-30T16:21:50.664Z,100418.84
2022-09-30T16:24:23.155Z,100422.31
2022-09-30T16:26:49.936Z,100420.50
2022-09-30T16:29:17.925Z,100416.13
2022-09-30T16:31:45.943Z,100414.34
2022-09-30T16:34:22.374Z,100407.28
2022-09-30T16:36:49.571Z,100409.84
2022-09-30T16:39:16.680Z,100408.91
2022-09-30T16:41:43.521Z,100407.97
2022-09-30T16:44:10.394Z,100403.53
2022-09-30T16:46:37.155Z,100406.09
2022-09-30T16:49:13.831Z,100412.97
2022-09-30T16:51:40.242Z,100406.78
2022-09-30T16:54:06.685Z,100413.69
2022-09-30T16:56:33.412Z,100406.66
2022-09-30T16:58:59.965Z,100407.50
2022-09-30T17:01:26.671Z,100410.88
2022-09-30T17:03:55.154Z,100409.06
2022-09-30T17:06:28.404Z,100410.72
2022-09-30T17:08:55.318Z,100415.88
2022-09-30T17:11:26.830Z,100420.16
2022-09-30T17:13:53.239Z,100420.94
2022-09-30T17:16:19.686Z,100421.72
2022-09-30T17:18:46.108Z,100419.06
2022-09-30T17:21:12.511Z,100413.75
2022-09-30T17:23:39.248Z,100419.72
2022-09-30T17:26:06.363Z,100410.94
2022-09-30T17:28:34.629Z,100418.66
2022-09-30T17:31:01.113Z,100422.94
2022-09-30T17:33:35.402Z,100423.69
2022-09-30T17:36:07.197Z,100416.66
2022-09-30T17:38:34.401Z,100416.53
2022-09-30T17:41:20.119Z,100414.72
2022-09-30T17:43:46.542Z,100419.88
2022-09-30T17:46:19.005Z,100418.88
2022-09-30T17:48:46.566Z,100426.63
2022-09-30T17:51:15.063Z,100426.50
2022-09-30T17:53:42.088Z,100424.72
2022-09-30T17:56:16.920Z,100423.75
2022-09-30T17:58:47.221Z,100428.84
2022-09-30T18:01:15.373Z,100433.13
2022-09-30T18:03:42.104Z,100431.31
2022-09-30T18:06:08.582Z,100438.16
2022-09-30T18:08:35.751Z,100437.22
2022-09-30T18:11:02.710Z,100438.03
2022-09-30T18:13:29.435Z,100437.06
2022-09-30T18:16:01.824Z,100435.22
2022-09-30T18:18:29.378Z,100441.19
2022-09-30T18:20:55.810Z,100437.59
2022-09-30T18:23:22.218Z,100443.63
2022-09-30T18:25:49.600Z,100448.78
2022-09-30T18:28:16.764Z,100449.50
2022-09-30T18:30:43.766Z,100452.84
2022-09-30T18:33:10.931Z,100455.25
2022-09-30T18:35:39.247Z,100445.56
2022-09-30T18:38:06.792Z,100443.69
2022-09-30T18:40:34.208Z,100442.69
2022-09-30T18:43:05.365Z,100444.28
2022-09-30T18:45:38.230Z,100450.28
2022-09-30T18:48:07.405Z,100458.88
2022-09-30T18:50:34.861Z,100464.00
2022-09-30T18:53:09.494Z,100455.22
2022-09-30T18:55:39.597Z,100455.16
2022-09-30T18:58:06.183Z,100460.28
2022-09-30T19:00:32.938Z,100469.72
2022-09-30T19:02:59.491Z,100468.78
2022-09-30T19:05:26.946Z,100467.84
2022-09-30T19:07:54.092Z,100466.06
2022-09-30T19:10:20.757Z,100467.75
2022-09-30T19:12:47.572Z,100463.28
2022-09-30T19:15:16.003Z,100463.19
2022-09-30T19:17:43.618Z,100470.00
2022-09-30T19:20:12.143Z,100470.75
2022-09-30T19:22:39.616Z,100469.81
2022-09-30T19:25:08.174Z,100470.63
2022-09-30T19:27:38.260Z,100472.19
2022-09-30T19:30:06.395Z,100473.81
2022-09-30T19:32:35.681Z,100463.28
2022-09-30T19:35:06.386Z,100467.47
2022-09-30T19:37:33.485Z,100464.72
2022-09-30T19:40:08.752Z,100462.91
2022-09-30T19:42:39.358Z,100460.13
2022-09-30T19:45:06.804Z,100460.00
2022-09-30T19:47:34.500Z,100470.25
2022-09-30T19:50:02.055Z,100461.47
2022-09-30T19:52:28.532Z,100458.75
2022-09-30T19:54:57.701Z,100449.91
2022-09-30T19:57:26.526Z,100448.03
2022-09-30T19:59:53.288Z,100448.72
2022-09-30T20:02:21.321Z,100446.88
2022-09-30T20:04:48.079Z,100446.78
2022-09-30T20:07:14.971Z,100444.00
2022-09-30T20:09:42.694Z,100440.44
2022-09-30T20:12:10.847Z,100436.88
2022-09-30T20:14:56.252Z,100439.34
2022-09-30T20:17:22.926Z,100439.25
2022-09-30T20:20:09.781Z,100430.50
2022-09-30T20:22:36.236Z,100426.09
2022-09-30T20:25:02.735Z,100436.41
2022-09-30T20:27:30.978Z,100438.13
2022-09-30T20:29:57.379Z,100438.09
2022-09-30T20:32:23.855Z,100435.38
2022-09-30T20:34:50.283Z,100437.06
2022-09-30T20:37:16.691Z,100433.53
2022-09-30T20:39:43.162Z,100440.41
2022-09-30T20:42:09.573Z,100437.72
2022-09-30T20:44:36.040Z,100441.97
2022-09-30T20:47:02.660Z,100443.63
2022-09-30T20:49:29.448Z,100447.97
2022-09-30T20:51:55.855Z,100451.34
2022-09-30T20:54:22.494Z,100445.22
2022-09-30T20:57:06.883Z,100447.78
2022-09-30T20:59:33.861Z,100458.13
2022-09-30T21:02:00.349Z,100451.19
2022-09-30T21:04:27.094Z,100455.44
2022-09-30T21:06:53.531Z,100457.06
2022-09-30T21:09:19.932Z,100453.53
2022-09-30T21:11:46.339Z,100456.88
2022-09-30T21:14:12.831Z,100460.28
2022-09-30T21:16:39.414Z,100451.56
2022-09-30T21:19:05.921Z,100463.66
2022-09-30T21:21:35.643Z,100459.19
2022-09-30T21:24:02.241Z,100456.50
2022-09-30T21:26:28.674Z,100455.50
2022-09-30T21:28:55.130Z,100454.44
2022-09-30T21:31:24.748Z,100464.72
2022-09-30T21:33:58.904Z,100459.41
2022-09-30T21:36:26.910Z,100460.94
2022-09-30T21:38:54.772Z,100460.81
2022-09-30T21:41:21.325Z,100462.50
2022-09-30T21:43:47.846Z,100461.56
2022-09-30T21:46:15.526Z,100463.22
2022-09-30T21:48:42.491Z,100464.06
2022-09-30T21:51:09.822Z,100448.41
2022-09-30T21:53:36.671Z,100455.31
2022-09-30T21:56:04.010Z,100449.25
2022-09-30T21:58:31.728Z,100448.38
2022-09-30T22:01:00.591Z,100445.78
2022-09-30T22:03:35.994Z,100446.63
2022-09-30T22:06:03.104Z,100440.59
2022-09-30T22:08:32.912Z,100441.44
2022-09-30T22:11:00.339Z,100438.78
2022-09-30T22:13:26.763Z,100435.28
2022-09-30T22:16:03.195Z,100437.81
2022-09-30T22:18:31.364Z,100432.59
2022-09-30T22:21:03.330Z,100428.06
2022-09-30T22:23:29.835Z,100434.09
2022-09-30T22:25:57.371Z,100425.38
2022-09-30T22:28:24.505Z,100421.84
2022-09-30T22:30:50.970Z,100413.16
2022-09-30T22:33:36.041Z,100413.06
2022-09-30T22:36:20.967Z,100413.81
2022-09-30T22:38:48.475Z,100418.06
2022-09-30T22:41:16.702Z,100414.50
2022-09-30T22:43:43.117Z,100416.16
2022-09-30T22:46:09.584Z,100414.41
2022-09-30T22:48:37.199Z,100414.41
2022-09-30T22:51:04.537Z,100414.38
2022-09-30T22:53:30.925Z,100409.88
2022-09-30T22:55:57.550Z,100409.00
2022-09-30T22:58:26.840Z,100404.59
2022-09-30T23:00:54.636Z,100404.56
2022-09-30T23:03:21.610Z,100400.22
2022-09-30T23:05:48.674Z,100397.53
2022-09-30T23:08:15.086Z,100394.06
2022-09-30T23:10:51.411Z,100400.03
2022-09-30T23:13:20.174Z,100390.53
2022-09-30T23:15:47.713Z,100393.13
2022-09-30T23:18:17.139Z,100393.03
2022-09-30T23:20:54.161Z,100383.50
2022-09-30T23:23:20.545Z,100381.69
2022-09-30T23:25:46.953Z,100379.09
2022-09-30T23:28:13.847Z,100378.19
2022-09-30T23:30:40.347Z,100379.06
2022-09-30T23:33:09.466Z,100373.88
2022-09-30T23:35:35.928Z,100373.00
2022-09-30T23:38:02.327Z,100373.00
2022-09-30T23:40:28.730Z,100370.38
2022-09-30T23:42:56.443Z,100368.59
2022-09-30T23:45:22.924Z,100366.88
2022-09-30T23:47:49.373Z,100367.69
2022-09-30T23:50:15.961Z,100353.78
2022-09-30T23:52:44.061Z,100354.59
2022-09-30T23:55:11.558Z,100354.59
2022-09-30T23:57:38.021Z,100357.13
